Gainsborough, United Kingdom
Current Conditions -  °F | °C
As of 12:50 AM on Friday 19 Dec 2014 (Local Time) from EGXP Reporting Station
Broken Clouds Broken Clouds  
Wind Chill: 10°   Ceiling: 2300
Heat Index: 10°   Visibility: 6mi
Dew Point: 10°   Wind: 15mph
Humidity: 100%   Direction: 270°W
Pressure: 29.62"   Gusts: NA
Location:  53.38°N, 0.77°W
Report Text: EGXP 190050Z AUTO 27013KT 9999 // BKN023/// 10/10 Q1003
Loading
Personal Weather Stations






























Interactive Weather Map New forecast layout! Learn more

10-Day Weather Forecast

Advertisements
Track Severe Weather on mobile